createdAt,value
2022-12-31T00:02:56.835Z,5.45
2022-12-31T00:06:00.353Z,5.50
2022-12-31T00:09:05.247Z,5.40
2022-12-31T00:12:09.148Z,5.57
2022-12-31T00:15:12.014Z,5.64
2022-12-31T00:18:14.027Z,6.56
2022-12-31T00:21:18.129Z,7.12
2022-12-31T00:24:20.464Z,7.72
2022-12-31T00:27:26.903Z,8.05
2022-12-31T00:30:28.738Z,8.16
2022-12-31T00:33:31.065Z,8.15
2022-12-31T00:36:34.674Z,8.14
2022-12-31T00:39:38.179Z,8.19
2022-12-31T00:42:42.164Z,8.29
2022-12-31T00:45:44.029Z,8.10
2022-12-31T00:48:47.032Z,7.91
2022-12-31T00:51:49.061Z,7.58
2022-12-31T00:54:53.952Z,7.43
2022-12-31T00:57:57.198Z,7.27
2022-12-31T01:00:59.561Z,7.22
2022-12-31T01:04:04.933Z,7.24
2022-12-31T01:07:08.272Z,7.13
2022-12-31T01:10:10.795Z,7.06
2022-12-31T01:13:14.311Z,6.91
2022-12-31T01:16:19.713Z,6.81
2022-12-31T01:19:24.085Z,6.74
2022-12-31T01:22:31.102Z,6.66
2022-12-31T01:25:35.100Z,6.60
2022-12-31T01:28:49.921Z,6.52
2022-12-31T01:31:51.879Z,6.46
2022-12-31T01:34:56.308Z,6.41
2022-12-31T01:37:58.103Z,6.38
2022-12-31T01:41:03.402Z,6.38
2022-12-31T01:44:38.437Z,6.37
2022-12-31T01:47:45.450Z,6.36
2022-12-31T01:50:48.582Z,6.30
2022-12-31T01:53:51.714Z,6.30
2022-12-31T01:56:55.304Z,6.28
2022-12-31T02:00:00.602Z,6.21
2022-12-31T02:03:07.255Z,6.19
2022-12-31T02:06:14.891Z,6.10
2022-12-31T02:09:18.105Z,6.08
2022-12-31T02:12:24.087Z,6.16
2022-12-31T02:15:33.828Z,6.23
2022-12-31T02:18:48.842Z,6.21
2022-12-31T02:22:01.229Z,6.22
2022-12-31T02:25:30.528Z,6.23
2022-12-31T02:28:53.824Z,6.24
2022-12-31T02:32:00.998Z,6.15
2022-12-31T02:35:10.256Z,6.23
2022-12-31T02:38:15.955Z,6.36
2022-12-31T02:41:20.338Z,6.85
2022-12-31T02:44:24.137Z,7.18
2022-12-31T02:47:43.683Z,7.73
2022-12-31T02:50:58.670Z,7.98
2022-12-31T02:54:17.429Z,8.08
2022-12-31T02:57:34.212Z,8.26
2022-12-31T03:00:44.033Z,8.76
2022-12-31T03:03:47.353Z,9.25
2022-12-31T03:06:51.806Z,9.41
2022-12-31T03:09:54.977Z,9.47
2022-12-31T03:12:57.102Z,9.72
2022-12-31T03:16:02.049Z,9.84
2022-12-31T03:19:05.506Z,10.06
2022-12-31T03:22:12.706Z,10.27
2022-12-31T03:25:17.123Z,10.21
2022-12-31T03:28:21.937Z,10.16
2022-12-31T03:31:26.110Z,10.10
2022-12-31T03:34:29.380Z,9.97
2022-12-31T03:37:31.716Z,9.99
2022-12-31T03:40:38.401Z,9.92
2022-12-31T03:43:42.224Z,9.92
2022-12-31T03:46:44.010Z,9.80
2022-12-31T03:49:47.237Z,9.77
2022-12-31T03:52:50.484Z,9.69
2022-12-31T03:55:52.848Z,9.47
2022-12-31T03:58:56.096Z,9.46
2022-12-31T04:01:58.087Z,9.41
2022-12-31T04:05:06.598Z,9.36
2022-12-31T04:08:08.609Z,9.40
2022-12-31T04:11:14.678Z,9.48
2022-12-31T04:14:20.803Z,9.41
2022-12-31T04:17:22.947Z,9.42
2022-12-31T04:20:26.244Z,9.42
2022-12-31T04:23:29.393Z,9.50
2022-12-31T04:26:33.459Z,9.50
2022-12-31T04:29:35.975Z,9.49
2022-12-31T04:32:37.835Z,9.52
2022-12-31T04:35:43.028Z,9.52
2022-12-31T04:38:45.071Z,9.63
2022-12-31T04:41:49.356Z,9.59
2022-12-31T04:44:51.887Z,9.58
2022-12-31T04:47:53.851Z,9.56
2022-12-31T04:50:57.769Z,9.65
2022-12-31T04:54:00.225Z,9.58
2022-12-31T04:57:02.147Z,9.69
2022-12-31T05:00:05.068Z,9.60
2022-12-31T05:03:07.004Z,9.51
2022-12-31T05:06:17.230Z,9.48
2022-12-31T05:09:19.154Z,9.88
2022-12-31T05:12:21.062Z,10.14
2022-12-31T05:15:24.623Z,10.32
2022-12-31T05:18:26.851Z,10.41
2022-12-31T05:21:30.088Z,10.42
2022-12-31T05:24:33.071Z,10.36
2022-12-31T05:27:35.239Z,10.25
2022-12-31T05:30:39.445Z,10.32
2022-12-31T05:33:41.326Z,10.37
2022-12-31T05:36:47.504Z,10.30
2022-12-31T05:39:49.354Z,10.34
2022-12-31T05:42:51.180Z,10.35
2022-12-31T05:45:57.095Z,10.35
2022-12-31T05:48:58.972Z,10.47
2022-12-31T05:52:02.997Z,10.48
2022-12-31T05:55:08.789Z,10.61
2022-12-31T05:58:10.661Z,10.63
2022-12-31T06:01:13.075Z,10.57
2022-12-31T06:04:15.171Z,10.54
2022-12-31T06:07:18.575Z,10.45
2022-12-31T06:10:22.417Z,10.23
2022-12-31T06:13:24.350Z,10.33
2022-12-31T06:16:27.770Z,10.35
2022-12-31T06:19:29.688Z,10.23
2022-12-31T06:22:32.940Z,10.19
2022-12-31T06:25:37.538Z,10.22
2022-12-31T06:28:39.487Z,10.26
2022-12-31T06:31:42.949Z,10.32
2022-12-31T06:34:44.987Z,10.59
2022-12-31T06:37:54.811Z,10.68
2022-12-31T06:40:56.853Z,10.71
2022-12-31T06:44:02.175Z,10.86
2022-12-31T06:47:04.248Z,10.83
2022-12-31T06:50:07.355Z,10.67
2022-12-31T06:53:15.494Z,10.66
2022-12-31T06:56:20.173Z,10.67
2022-12-31T06:59:25.824Z,10.69
2022-12-31T07:02:48.458Z,10.71
2022-12-31T07:05:54.318Z,10.55
2022-12-31T07:09:09.058Z,10.31
2022-12-31T07:12:20.470Z,10.10
2022-12-31T07:15:50.234Z,9.83
2022-12-31T07:18:58.559Z,9.81
2022-12-31T07:22:03.129Z,9.99
2022-12-31T07:25:13.726Z,10.06
2022-12-31T07:28:25.264Z,10.22
2022-12-31T07:31:39.885Z,10.51
2022-12-31T07:34:51.217Z,10.46
2022-12-31T07:38:02.705Z,10.41
2022-12-31T07:41:17.216Z,10.41
2022-12-31T07:44:34.670Z,10.33
2022-12-31T07:47:37.260Z,10.21
2022-12-31T07:50:39.684Z,10.19
2022-12-31T07:53:43.086Z,10.12
2022-12-31T07:56:47.472Z,10.04
2022-12-31T08:00:03.866Z,9.94
2022-12-31T08:03:18.888Z,9.86
2022-12-31T08:06:35.175Z,9.75
2022-12-31T08:09:46.874Z,9.70
2022-12-31T08:12:53.258Z,9.62
2022-12-31T08:15:58.255Z,9.53
2022-12-31T08:19:00.985Z,9.50
2022-12-31T08:22:14.917Z,9.40
2022-12-31T08:25:25.893Z,9.40
2022-12-31T08:28:56.968Z,9.38
2022-12-31T08:32:12.138Z,9.33
2022-12-31T08:35:27.264Z,9.29
2022-12-31T08:38:35.171Z,9.29
2022-12-31T08:41:43.052Z,9.33
2022-12-31T08:44:54.618Z,9.35
2022-12-31T08:48:04.259Z,9.41
2022-12-31T08:51:14.341Z,9.37
2022-12-31T08:54:16.956Z,9.40
2022-12-31T08:57:28.297Z,9.45
2022-12-31T09:00:32.547Z,9.45
2022-12-31T09:03:53.322Z,9.43
2022-12-31T09:06:59.696Z,9.51
2022-12-31T09:10:12.091Z,9.56
2022-12-31T09:13:25.136Z,9.63
2022-12-31T09:16:29.193Z,9.67
2022-12-31T09:19:32.449Z,9.67
2022-12-31T09:22:36.211Z,9.70
2022-12-31T09:25:44.130Z,9.72
2022-12-31T09:28:54.792Z,9.76
2022-12-31T09:32:05.952Z,9.80
2022-12-31T09:35:16.882Z,9.77
2022-12-31T09:38:22.781Z,9.79
2022-12-31T09:42:14.910Z,9.83
2022-12-31T09:45:52.329Z,9.90
2022-12-31T09:49:28.181Z,9.92
2022-12-31T09:52:47.649Z,9.88
2022-12-31T09:55:57.668Z,9.94
2022-12-31T09:59:05.603Z,10.05
2022-12-31T10:02:22.922Z,10.07
2022-12-31T10:05:50.486Z,10.09
2022-12-31T10:09:10.458Z,10.07
2022-12-31T10:12:22.677Z,10.04
2022-12-31T10:15:38.885Z,10.04
2022-12-31T10:18:58.356Z,10.01
2022-12-31T10:22:15.053Z,10.05
2022-12-31T10:25:38.915Z,10.04
2022-12-31T10:28:56.526Z,10.09
2022-12-31T10:32:17.489Z,10.18
2022-12-31T10:35:35.669Z,10.23
2022-12-31T10:38:47.213Z,10.23
2022-12-31T10:42:25.190Z,10.27
2022-12-31T10:46:01.960Z,10.36
2022-12-31T10:49:30.697Z,10.44
2022-12-31T10:53:19.776Z,10.53
2022-12-31T10:56:56.224Z,10.64
2022-12-31T11:00:18.528Z,10.73
2022-12-31T11:03:55.611Z,10.81
2022-12-31T11:07:27.489Z,10.79
2022-12-31T11:11:03.528Z,10.83
2022-12-31T11:14:33.917Z,10.94
2022-12-31T11:17:45.148Z,11.03
2022-12-31T11:21:28.498Z,11.14
2022-12-31T11:24:41.862Z,11.21
2022-12-31T11:27:56.882Z,11.32
2022-12-31T11:31:12.355Z,11.45
2022-12-31T11:34:49.275Z,11.53
2022-12-31T11:37:54.644Z,11.52
2022-12-31T11:41:05.433Z,11.61
2022-12-31T11:44:20.697Z,11.65
2022-12-31T11:48:29.232Z,11.65
2022-12-31T11:52:00.693Z,11.83
2022-12-31T11:55:26.743Z,11.84
2022-12-31T11:58:29.926Z,11.84
2022-12-31T12:01:36.472Z,11.94
2022-12-31T12:04:38.411Z,11.94
2022-12-31T12:07:44.305Z,11.94
2022-12-31T12:10:48.728Z,12.03
2022-12-31T12:13:50.636Z,12.05
2022-12-31T12:17:02.432Z,12.00
2022-12-31T12:20:15.630Z,11.96
2022-12-31T12:23:24.596Z,11.97
2022-12-31T12:26:34.162Z,12.02
2022-12-31T12:29:36.274Z,12.02
2022-12-31T12:32:39.136Z,12.03
2022-12-31T12:35:41.071Z,12.03
2022-12-31T12:38:46.437Z,12.07
2022-12-31T12:41:59.969Z,12.10
2022-12-31T12:45:05.010Z,12.06
2022-12-31T12:48:17.622Z,12.22
2022-12-31T12:51:33.321Z,12.37
2022-12-31T12:54:55.061Z,12.38
2022-12-31T12:58:06.679Z,12.61
2022-12-31T13:01:21.748Z,12.78
2022-12-31T13:04:38.533Z,12.90
2022-12-31T13:07:56.670Z,12.97
2022-12-31T13:11:12.048Z,12.97
2022-12-31T13:14:25.827Z,12.98
2022-12-31T13:17:46.050Z,13.00
2022-12-31T13:20:59.396Z,12.99
2022-12-31T13:24:07.713Z,12.99
2022-12-31T13:27:15.062Z,12.94
2022-12-31T13:30:21.926Z,12.96
2022-12-31T13:33:29.480Z,12.89
2022-12-31T13:36:38.471Z,12.84
2022-12-31T13:39:44.156Z,12.78
2022-12-31T13:42:53.788Z,12.73
2022-12-31T13:46:08.251Z,12.71
2022-12-31T13:49:17.434Z,12.76
2022-12-31T13:52:28.758Z,12.73
2022-12-31T13:55:33.798Z,12.67
2022-12-31T13:58:43.524Z,12.67
2022-12-31T14:01:53.054Z,12.64
2022-12-31T14:05:00.533Z,12.64
2022-12-31T14:08:05.263Z,12.66
2022-12-31T14:11:18.665Z,12.67
2022-12-31T14:14:31.236Z,12.68
2022-12-31T14:17:42.581Z,12.67
2022-12-31T14:20:49.001Z,12.68
2022-12-31T14:23:59.636Z,12.65
2022-12-31T14:27:05.537Z,12.58
2022-12-31T14:30:16.063Z,12.52
2022-12-31T14:33:32.287Z,12.51
2022-12-31T14:36:46.299Z,12.49
2022-12-31T14:39:54.970Z,12.42
2022-12-31T14:43:10.241Z,12.36
2022-12-31T14:46:26.035Z,12.31
2022-12-31T14:49:38.660Z,12.27
2022-12-31T14:52:52.110Z,12.18
2022-12-31T14:56:01.559Z,12.04
2022-12-31T14:59:03.528Z,11.95
2022-12-31T15:02:30.120Z,11.93
2022-12-31T15:05:34.599Z,11.86
2022-12-31T15:08:47.322Z,11.83
2022-12-31T15:12:14.429Z,11.77
2022-12-31T15:15:55.607Z,11.63
2022-12-31T15:19:29.748Z,11.39
2022-12-31T15:22:39.846Z,11.16
2022-12-31T15:25:47.849Z,10.97
2022-12-31T15:28:58.563Z,10.88
2022-12-31T15:32:04.084Z,10.60
2022-12-31T15:38:36.527Z,10.36
2022-12-31T15:42:03.122Z,10.33
2022-12-31T15:45:08.049Z,10.14
2022-12-31T15:48:16.727Z,10.05
2022-12-31T15:51:22.592Z,10.08
2022-12-31T15:54:34.779Z,10.13
2022-12-31T15:57:40.214Z,9.76
2022-12-31T16:01:01.462Z,9.78
2022-12-31T16:04:05.807Z,9.77
2022-12-31T16:07:09.561Z,9.50
2022-12-31T16:10:19.097Z,9.37
2022-12-31T16:13:24.219Z,9.39
2022-12-31T16:16:27.836Z,9.53
2022-12-31T16:19:35.690Z,9.40
2022-12-31T16:22:39.745Z,9.42
2022-12-31T16:25:45.347Z,9.41
2022-12-31T16:28:48.283Z,9.43
2022-12-31T16:31:52.282Z,9.43
2022-12-31T16:34:54.129Z,9.49
2022-12-31T16:38:13.969Z,9.62
2022-12-31T16:41:17.866Z,9.64
2022-12-31T16:44:27.635Z,9.60
2022-12-31T16:47:34.095Z,9.54
2022-12-31T16:50:36.561Z,9.34
2022-12-31T16:53:40.661Z,9.48
2022-12-31T16:56:44.424Z,9.49
2022-12-31T16:59:49.389Z,9.38
2022-12-31T17:03:01.135Z,9.38
2022-12-31T17:06:14.076Z,9.13
2022-12-31T17:09:17.687Z,9.18
2022-12-31T17:12:20.968Z,9.11
2022-12-31T17:15:25.703Z,8.90
2022-12-31T17:18:35.613Z,8.86
2022-12-31T17:21:37.469Z,8.94
2022-12-31T17:24:39.874Z,8.93
2022-12-31T17:27:52.862Z,9.04
2022-12-31T17:31:00.009Z,9.02
2022-12-31T17:34:20.179Z,8.67
2022-12-31T17:37:27.175Z,8.47
2022-12-31T17:40:50.823Z,8.62
2022-12-31T17:43:57.825Z,8.59
2022-12-31T17:46:59.685Z,8.64
2022-12-31T17:50:08.804Z,8.63
2022-12-31T17:53:12.736Z,8.61
2022-12-31T17:56:15.449Z,8.62
2022-12-31T17:59:21.820Z,8.57
2022-12-31T18:02:23.734Z,8.53
2022-12-31T18:05:26.046Z,8.56
2022-12-31T18:08:27.922Z,8.42
2022-12-31T18:11:29.853Z,8.45
2022-12-31T18:14:33.584Z,8.47
2022-12-31T18:17:35.472Z,8.36
2022-12-31T18:20:37.368Z,8.38
2022-12-31T18:23:42.248Z,8.27
2022-12-31T18:26:44.083Z,8.01
2022-12-31T18:29:47.291Z,7.79
2022-12-31T18:32:49.163Z,7.66
2022-12-31T18:36:09.613Z,7.63
2022-12-31T18:39:12.243Z,7.68
2022-12-31T18:42:16.135Z,7.57
2022-12-31T18:45:21.098Z,7.72
2022-12-31T18:48:23.161Z,7.63
2022-12-31T18:51:31.320Z,7.58
2022-12-31T18:54:33.739Z,7.41
2022-12-31T18:57:35.552Z,7.51
2022-12-31T19:00:38.766Z,7.57
2022-12-31T19:03:40.551Z,7.50
2022-12-31T19:06:42.679Z,7.50
2022-12-31T19:09:45.977Z,7.55
2022-12-31T19:12:48.810Z,7.52
2022-12-31T19:15:53.296Z,7.49
2022-12-31T19:18:55.166Z,7.24
2022-12-31T19:21:56.977Z,7.18
2022-12-31T19:24:58.803Z,7.01
2022-12-31T19:28:00.999Z,6.98
2022-12-31T19:31:04.275Z,7.12
2022-12-31T19:34:06.097Z,7.18
2022-12-31T19:37:11.974Z,7.24
2022-12-31T19:40:16.488Z,7.07
2022-12-31T19:43:20.635Z,6.99
2022-12-31T19:46:23.846Z,6.81
2022-12-31T19:49:25.764Z,6.86
2022-12-31T19:52:27.571Z,6.86
2022-12-31T19:55:29.400Z,6.72
2022-12-31T19:58:31.356Z,6.62
2022-12-31T20:01:34.891Z,6.73
2022-12-31T20:04:36.783Z,6.73
2022-12-31T20:07:38.638Z,6.81
2022-12-31T20:10:40.879Z,6.98
2022-12-31T20:13:43.425Z,6.86
2022-12-31T20:16:46.687Z,6.82
2022-12-31T20:19:48.625Z,6.81
2022-12-31T20:22:50.460Z,6.85
2022-12-31T20:25:58.177Z,6.79
2022-12-31T20:28:59.984Z,6.62
2022-12-31T20:32:03.560Z,6.55
2022-12-31T20:35:06.424Z,6.37
2022-12-31T20:38:08.235Z,6.49
2022-12-31T20:41:11.644Z,6.59
2022-12-31T20:44:13.578Z,6.72
2022-12-31T20:47:16.737Z,6.69
2022-12-31T20:50:18.834Z,6.56
2022-12-31T20:53:20.588Z,6.70
2022-12-31T20:56:23.326Z,6.65
2022-12-31T20:59:25.137Z,6.37
2022-12-31T21:02:40.798Z,6.45
2022-12-31T21:05:47.612Z,6.55
2022-12-31T21:08:49.651Z,6.44
2022-12-31T21:11:51.483Z,6.48
2022-12-31T21:14:53.271Z,6.48
2022-12-31T21:17:56.498Z,6.20
2022-12-31T21:20:58.316Z,6.19
2022-12-31T21:24:00.165Z,6.27
2022-12-31T21:27:02.003Z,6.30
2022-12-31T21:30:20.152Z,6.46
2022-12-31T21:33:23.898Z,6.13
2022-12-31T21:36:25.779Z,6.12
2022-12-31T21:39:27.561Z,6.36
2022-12-31T21:42:29.363Z,6.51
2022-12-31T21:45:31.253Z,6.38
2022-12-31T21:48:34.444Z,6.40
2022-12-31T21:51:36.279Z,6.44
2022-12-31T21:54:38.068Z,6.46
2022-12-31T21:58:15.163Z,6.46
2022-12-31T22:01:03.596Z,6.24
2022-12-31T22:04:12.924Z,6.26
2022-12-31T22:07:24.134Z,6.38
2022-12-31T22:10:25.983Z,6.39
2022-12-31T22:13:27.871Z,6.44
2022-12-31T22:16:29.671Z,6.38
2022-12-31T22:19:39.270Z,6.29
2022-12-31T22:22:54.739Z,6.36
2022-12-31T22:25:56.721Z,6.35
2022-12-31T22:28:58.543Z,6.33
2022-12-31T22:32:01.361Z,6.04
2022-12-31T22:35:05.560Z,5.96
2022-12-31T22:38:11.882Z,5.93
2022-12-31T22:41:15.414Z,5.84
2022-12-31T22:44:17.235Z,5.90
2022-12-31T22:47:19.069Z,5.82
2022-12-31T22:50:22.256Z,5.65
2022-12-31T22:53:24.150Z,6.16
2022-12-31T22:56:25.947Z,6.80
2022-12-31T22:59:27.767Z,7.66
2022-12-31T23:02:30.550Z,7.83
2022-12-31T23:05:34.393Z,7.91
2022-12-31T23:08:36.755Z,7.88
2022-12-31T23:11:39.355Z,7.92
2022-12-31T23:14:41.188Z,7.90
2022-12-31T23:17:42.987Z,7.93
2022-12-31T23:20:46.243Z,7.85
2022-12-31T23:23:52.843Z,7.67
2022-12-31T23:26:55.958Z,7.68
2022-12-31T23:29:57.767Z,7.70
2022-12-31T23:32:59.904Z,7.70
2022-12-31T23:36:04.283Z,7.66
2022-12-31T23:39:06.113Z,7.66
2022-12-31T23:42:08.177Z,7.61
2022-12-31T23:45:10.658Z,7.53
2022-12-31T23:48:12.425Z,7.40
2022-12-31T23:51:15.624Z,7.40
2022-12-31T23:54:17.521Z,7.34
2022-12-31T23:57:19.341Z,7.32
